Terminal Aerodrome Forecast
Issued by NWS Twin Cities, MN

Home | Current Version | Previous Version | Graphics & Text | Print | Product List | Glossary On
Versions: 1 2 3 4 5 6 7 8 9 10 11 12 13 14 15 16
000
FTUS43 KMPX 240520
TAFSTC
TAF
KSTC 240520Z 2406/2506 22016G25KT P6SM BKN050 OVC090
     FM241000 26015G22KT P6SM -SN BKN025 OVC040
      TEMPO 2410/2413 2SM -SN OVC018
     FM241300 30017G26KT P6SM BKN025 BKN040
     FM241600 31018G28KT P6SM SCT030
     FM250000 31012KT P6SM FEW030 BKN150=

USA.gov is the U.S. government's official web portal to all federal, state and local government web resources and services.